createdAt,value
2023-10-26T00:01:29.420Z,100.00
2023-10-26T00:04:06.613Z,100.00
2023-10-26T00:06:35.285Z,100.00
2023-10-26T00:09:03.108Z,100.00
2023-10-26T00:11:32.273Z,100.00
2023-10-26T00:13:59.993Z,100.00
2023-10-26T00:16:29.305Z,100.00
2023-10-26T00:18:57.401Z,100.00
2023-10-26T00:21:25.356Z,100.00
2023-10-26T00:23:53.104Z,100.00
2023-10-26T00:26:21.326Z,100.00
2023-10-26T00:28:48.987Z,100.00
2023-10-26T00:31:16.616Z,100.00
2023-10-26T00:33:46.428Z,100.00
2023-10-26T00:36:14.288Z,100.00
2023-10-26T00:38:42.021Z,100.00
2023-10-26T00:41:10.313Z,100.00
2023-10-26T00:43:38.021Z,100.00
2023-10-26T00:46:12.309Z,100.00
2023-10-26T00:48:40.594Z,100.00
2023-10-26T00:51:09.859Z,100.00
2023-10-26T00:53:38.342Z,100.00
2023-10-26T00:56:07.287Z,100.00
2023-10-26T00:58:35.326Z,100.00
2023-10-26T01:01:03.242Z,100.00
2023-10-26T01:03:32.353Z,100.00
2023-10-26T01:06:00.413Z,100.00
2023-10-26T01:08:30.357Z,100.00
2023-10-26T01:10:59.074Z,100.00
2023-10-26T01:13:27.378Z,100.00
2023-10-26T01:15:55.109Z,100.00
2023-10-26T01:18:23.462Z,100.00
2023-10-26T01:20:51.291Z,100.00
2023-10-26T01:23:21.363Z,100.00
2023-10-26T01:25:53.554Z,100.00
2023-10-26T01:28:21.455Z,100.00
2023-10-26T01:30:49.144Z,100.00
2023-10-26T01:33:17.461Z,100.00
2023-10-26T01:35:47.152Z,100.00
2023-10-26T01:38:15.372Z,100.00
2023-10-26T01:40:45.397Z,100.00
2023-10-26T01:43:13.106Z,100.00
2023-10-26T01:45:41.390Z,100.00
2023-10-26T01:48:09.129Z,100.00
2023-10-26T01:50:38.436Z,100.00
2023-10-26T01:53:07.278Z,100.00
2023-10-26T01:55:35.417Z,100.00
2023-10-26T01:58:04.554Z,100.00
2023-10-26T02:00:32.411Z,100.00
2023-10-26T02:03:00.184Z,100.00
2023-10-26T02:05:29.525Z,100.00
2023-10-26T02:07:57.242Z,100.00
2023-10-26T02:10:30.456Z,100.00
2023-10-26T02:13:16.355Z,100.00
2023-10-26T02:15:44.416Z,100.00
2023-10-26T02:18:12.184Z,100.00
2023-10-26T02:20:40.446Z,100.00
2023-10-26T02:23:08.305Z,100.00
2023-10-26T02:25:36.455Z,100.00
2023-10-26T02:28:03.697Z,100.00
2023-10-26T02:30:33.468Z,100.00
2023-10-26T02:33:01.261Z,100.00
2023-10-26T02:35:29.444Z,100.00
2023-10-26T02:40:42.462Z,100.00
2023-10-26T02:43:10.204Z,100.00
2023-10-26T02:45:40.560Z,100.00
2023-10-26T02:48:07.518Z,100.00
2023-10-26T02:50:36.587Z,100.00
2023-10-26T02:53:04.466Z,100.00
2023-10-26T02:55:32.135Z,100.00
2023-10-26T02:58:00.505Z,100.00
2023-10-26T03:00:28.285Z,100.00
2023-10-26T03:02:58.638Z,100.00
2023-10-26T03:05:26.461Z,100.00
2023-10-26T03:07:55.512Z,100.00
2023-10-26T03:10:24.134Z,100.00
2023-10-26T03:12:52.494Z,100.00
2023-10-26T03:15:20.280Z,100.00
2023-10-26T03:17:48.504Z,100.00
2023-10-26T03:20:17.709Z,100.00
2023-10-26T03:22:45.527Z,100.00
2023-10-26T03:25:15.387Z,100.00
2023-10-26T03:27:43.515Z,100.00
2023-10-26T03:30:12.010Z,100.00
2023-10-26T03:32:40.552Z,100.00
2023-10-26T03:35:09.817Z,100.00
2023-10-26T03:37:39.226Z,100.00
2023-10-26T03:40:08.559Z,100.00
2023-10-26T03:42:37.282Z,100.00
2023-10-26T03:45:05.626Z,100.00
2023-10-26T03:47:33.467Z,100.00
2023-10-26T03:50:01.587Z,100.00
2023-10-26T03:52:29.304Z,100.00
2023-10-26T03:54:58.693Z,100.00
2023-10-26T03:57:26.372Z,100.00
2023-10-26T03:59:54.606Z,100.00
2023-10-26T04:02:22.288Z,100.00
2023-10-26T04:04:51.348Z,100.00
2023-10-26T04:07:20.548Z,100.00
2023-10-26T04:09:48.221Z,100.00
2023-10-26T04:12:18.601Z,100.00
2023-10-26T04:14:46.446Z,100.00
2023-10-26T04:17:16.564Z,100.00
2023-10-26T04:19:44.297Z,100.00
2023-10-26T04:22:12.561Z,100.00
2023-10-26T04:24:40.272Z,100.00
2023-10-26T04:27:08.584Z,100.00
2023-10-26T04:29:37.785Z,100.00
2023-10-26T04:32:06.861Z,100.00
2023-10-26T04:34:34.618Z,100.00
2023-10-26T04:37:02.610Z,100.00
2023-10-26T04:39:30.327Z,100.00
2023-10-26T04:41:58.658Z,100.00
2023-10-26T04:44:26.371Z,100.00
2023-10-26T04:46:55.499Z,100.00
2023-10-26T04:49:23.634Z,100.00
2023-10-26T04:51:51.341Z,100.00
2023-10-26T04:54:20.701Z,100.00
2023-10-26T04:56:48.699Z,100.00
2023-10-26T04:59:16.642Z,100.00
2023-10-26T05:01:44.940Z,100.00
2023-10-26T05:04:14.637Z,100.00
2023-10-26T05:06:42.396Z,100.00
2023-10-26T05:09:11.345Z,100.00
2023-10-26T05:11:39.050Z,100.00
2023-10-26T05:14:08.649Z,100.00
2023-10-26T05:16:36.413Z,100.00
2023-10-26T05:19:04.215Z,100.00
2023-10-26T05:21:34.906Z,100.00
2023-10-26T05:24:02.823Z,100.00
2023-10-26T05:26:30.673Z,100.00
2023-10-26T05:28:58.376Z,100.00
2023-10-26T05:31:26.690Z,100.00
2023-10-26T05:33:54.500Z,100.00
2023-10-26T05:36:22.722Z,100.00
2023-10-26T05:38:53.120Z,100.00
2023-10-26T05:41:20.808Z,100.00
2023-10-26T05:43:48.521Z,100.00
2023-10-26T05:46:16.729Z,100.00
2023-10-26T05:48:44.492Z,100.00
2023-10-26T05:51:12.202Z,100.00
2023-10-26T05:53:40.956Z,100.00
2023-10-26T05:56:11.802Z,100.00
2023-10-26T05:58:39.533Z,100.00
2023-10-26T06:01:07.686Z,100.00
2023-10-26T06:03:35.448Z,100.00
2023-10-26T06:06:04.782Z,100.00
2023-10-26T06:08:32.497Z,100.00
2023-10-26T06:11:00.699Z,100.00
2023-10-26T06:13:29.804Z,100.00
2023-10-26T06:15:57.540Z,100.00
2023-10-26T06:18:25.779Z,100.00
2023-10-26T06:20:59.498Z,100.00
2023-10-26T06:23:29.851Z,100.00
2023-10-26T06:26:01.315Z,100.00
2023-10-26T06:28:32.109Z,100.00
2023-10-26T06:31:11.393Z,100.00
2023-10-26T06:33:40.772Z,100.00
2023-10-26T06:36:11.752Z,100.00
2023-10-26T06:38:40.743Z,100.00
2023-10-26T06:41:09.961Z,100.00
2023-10-26T06:43:39.988Z,100.00
2023-10-26T06:46:08.054Z,100.00
2023-10-26T06:48:36.803Z,100.00
2023-10-26T06:51:06.952Z,100.00
2023-10-26T06:53:35.997Z,100.00
2023-10-26T06:56:03.946Z,100.00
2023-10-26T06:58:31.636Z,100.00
2023-10-26T07:01:19.693Z,100.00
2023-10-26T07:03:49.046Z,100.00
2023-10-26T07:06:17.774Z,100.00
2023-10-26T07:08:46.679Z,100.00
2023-10-26T07:11:14.808Z,100.00
2023-10-26T07:13:42.540Z,100.00
2023-10-26T07:16:11.810Z,100.00
2023-10-26T07:18:40.333Z,100.00
2023-10-26T07:21:08.794Z,100.00
2023-10-26T07:23:37.806Z,100.00
2023-10-26T07:26:06.086Z,100.00
2023-10-26T07:28:34.791Z,100.00
2023-10-26T07:31:02.542Z,100.00
2023-10-26T07:33:31.847Z,100.00
2023-10-26T07:36:00.146Z,100.00
2023-10-26T07:38:35.990Z,100.00
2023-10-26T07:41:07.296Z,100.00
2023-10-26T07:43:35.357Z,100.00
2023-10-26T07:46:03.290Z,100.00
2023-10-26T07:48:33.861Z,100.00
2023-10-26T07:51:01.672Z,100.00
2023-10-26T07:53:30.850Z,100.00
2023-10-26T07:55:58.883Z,100.00
2023-10-26T07:58:27.994Z,100.00
2023-10-26T08:00:55.782Z,100.00
2023-10-26T08:03:26.135Z,100.00
2023-10-26T08:05:59.034Z,100.00
2023-10-26T08:08:26.951Z,100.00
2023-10-26T08:10:55.004Z,100.00
2023-10-26T08:13:23.868Z,100.00
2023-10-26T08:16:36.902Z,100.00
2023-10-26T08:18:39.951Z,100.00
2023-10-26T08:21:09.155Z,100.00
2023-10-26T08:23:36.856Z,100.00
2023-10-26T08:26:08.908Z,100.00
2023-10-26T08:28:37.206Z,100.00
2023-10-26T08:31:23.940Z,100.00
2023-10-26T08:33:52.105Z,100.00
2023-10-26T08:36:21.908Z,100.00
2023-10-26T08:38:49.607Z,100.00
2023-10-26T08:41:17.915Z,100.00
2023-10-26T08:43:45.644Z,100.00
2023-10-26T08:46:13.926Z,100.00
2023-10-26T08:48:43.415Z,100.00
2023-10-26T08:51:11.911Z,100.00
2023-10-26T08:53:42.037Z,100.00
2023-10-26T08:56:10.691Z,100.00
2023-10-26T08:58:38.978Z,100.00
2023-10-26T09:01:07.734Z,100.00
2023-10-26T09:03:37.062Z,97.42
2023-10-26T09:06:06.118Z,100.00
2023-10-26T09:08:34.185Z,100.00
2023-10-26T09:11:05.915Z,100.00
2023-10-26T09:13:34.361Z,100.00
2023-10-26T09:16:02.090Z,100.00
2023-10-26T09:18:29.963Z,100.00
2023-10-26T09:21:22.729Z,100.00
2023-10-26T09:23:50.951Z,100.00
2023-10-26T09:26:21.648Z,100.00
2023-10-26T09:28:50.999Z,100.00
2023-10-26T09:31:19.675Z,100.00
2023-10-26T09:33:48.040Z,100.00
2023-10-26T09:36:37.188Z,100.00
2023-10-26T09:41:52.726Z,100.00
2023-10-26T09:44:21.978Z,100.00
2023-10-26T09:46:59.194Z,100.00
2023-10-26T09:49:29.005Z,100.00
2023-10-26T09:51:59.822Z,100.00
2023-10-26T09:54:31.014Z,100.00
2023-10-26T09:57:23.452Z,100.00
2023-10-26T09:59:56.389Z,100.00
2023-10-26T10:02:25.520Z,100.00
2023-10-26T10:04:53.984Z,100.00
2023-10-26T10:07:46.325Z,100.00
2023-10-26T10:10:15.006Z,100.00
2023-10-26T10:12:43.944Z,100.00
2023-10-26T10:15:36.186Z,100.00
2023-10-26T10:18:04.062Z,100.00
2023-10-26T10:20:33.436Z,100.00
2023-10-26T10:23:04.007Z,100.00
2023-10-26T10:26:08.638Z,98.10
2023-10-26T10:28:56.016Z,100.00
2023-10-26T10:31:42.582Z,98.86
2023-10-26T10:34:15.058Z,100.00
2023-10-26T10:37:11.754Z,94.85
2023-10-26T10:40:16.110Z,90.72
2023-10-26T10:42:48.812Z,100.00
2023-10-26T10:45:18.146Z,100.00
2023-10-26T10:47:48.077Z,100.00
2023-10-26T10:50:17.557Z,100.00
2023-10-26T10:52:47.027Z,100.00
2023-10-26T10:55:20.496Z,100.00
2023-10-26T10:57:57.123Z,100.00
2023-10-26T11:00:25.293Z,100.00
2023-10-26T11:02:58.263Z,99.12
2023-10-26T11:05:40.533Z,100.00
2023-10-26T11:08:09.053Z,100.00
2023-10-26T11:10:38.506Z,100.00
2023-10-26T11:13:07.087Z,100.00
2023-10-26T11:15:35.077Z,100.00
2023-10-26T11:18:06.123Z,100.00
2023-10-26T11:20:41.703Z,100.00
2023-10-26T11:23:26.096Z,100.00
2023-10-26T11:25:55.390Z,94.32
2023-10-26T11:28:36.084Z,97.59
2023-10-26T11:31:03.990Z,94.05
2023-10-26T11:33:34.161Z,100.00
2023-10-26T11:36:02.657Z,100.00
2023-10-26T11:38:33.130Z,100.00
2023-10-26T11:41:02.382Z,100.00
2023-10-26T11:43:34.159Z,100.00
2023-10-26T11:46:04.217Z,100.00
2023-10-26T11:48:35.345Z,100.00
2023-10-26T11:51:07.629Z,100.00
2023-10-26T11:53:37.131Z,100.00
2023-10-26T11:56:06.458Z,100.00
2023-10-26T11:58:37.318Z,100.00
2023-10-26T12:01:06.968Z,100.00
2023-10-26T12:03:37.283Z,100.00
2023-10-26T12:06:05.112Z,100.00
2023-10-26T12:08:33.150Z,100.00
2023-10-26T12:11:01.421Z,100.00
2023-10-26T12:13:31.163Z,100.00
2023-10-26T12:15:59.036Z,100.00
2023-10-26T12:18:28.129Z,100.00
2023-10-26T12:20:56.173Z,100.00
2023-10-26T12:23:24.000Z,100.00
2023-10-26T12:25:52.170Z,100.00
2023-10-26T12:28:24.675Z,100.00
2023-10-26T12:30:59.322Z,100.00
2023-10-26T12:33:28.822Z,100.00
2023-10-26T12:35:56.645Z,98.71
2023-10-26T12:38:25.197Z,93.60
2023-10-26T12:40:52.943Z,100.00
2023-10-26T12:43:21.202Z,100.00
2023-10-26T12:45:49.112Z,100.00
2023-10-26T12:48:18.198Z,99.65
2023-10-26T12:51:20.553Z,100.00
2023-10-26T12:53:49.203Z,100.00
2023-10-26T12:56:17.059Z,98.32
2023-10-26T12:58:45.214Z,90.71
2023-10-26T13:01:13.097Z,94.51
2023-10-26T13:03:43.254Z,88.62
2023-10-26T13:06:10.919Z,78.89
2023-10-26T13:08:38.574Z,89.66
2023-10-26T13:11:07.272Z,100.00
2023-10-26T13:13:35.207Z,99.00
2023-10-26T13:16:03.268Z,92.39
2023-10-26T13:18:30.987Z,100.00
2023-10-26T13:21:00.244Z,96.19
2023-10-26T13:23:27.926Z,100.00
2023-10-26T13:25:56.847Z,100.00
2023-10-26T13:28:25.461Z,96.53
2023-10-26T13:30:53.290Z,100.00
2023-10-26T13:33:22.140Z,100.00
2023-10-26T13:35:50.276Z,92.56
2023-10-26T13:38:19.336Z,86.96
2023-10-26T13:40:47.302Z,78.07
2023-10-26T13:43:17.062Z,95.74
2023-10-26T13:45:45.403Z,90.23
2023-10-26T13:48:14.719Z,97.42
2023-10-26T13:50:44.511Z,85.92
2023-10-26T13:53:14.429Z,94.62
2023-10-26T13:55:43.471Z,87.95
2023-10-26T13:58:12.575Z,96.99
2023-10-26T14:00:40.858Z,94.06
2023-10-26T14:03:09.310Z,79.14
2023-10-26T14:05:38.562Z,88.05
2023-10-26T14:08:07.322Z,85.38
2023-10-26T14:10:55.520Z,88.44
2023-10-26T14:13:23.354Z,93.84
2023-10-26T14:15:51.336Z,83.50
2023-10-26T14:18:19.017Z,97.14
2023-10-26T14:20:48.388Z,96.49
2023-10-26T14:23:16.075Z,89.69
2023-10-26T14:25:45.347Z,89.04
2023-10-26T14:28:14.440Z,95.04
2023-10-26T14:30:42.496Z,94.86
2023-10-26T14:33:10.568Z,80.08
2023-10-26T14:35:39.400Z,85.97
2023-10-26T14:38:09.482Z,84.29
2023-10-26T14:40:38.407Z,82.77
2023-10-26T14:43:06.159Z,94.11
2023-10-26T14:45:36.407Z,84.85
2023-10-26T14:48:04.643Z,95.37
2023-10-26T14:50:32.895Z,100.00
2023-10-26T14:53:01.393Z,99.05
2023-10-26T14:55:29.362Z,99.34
2023-10-26T14:57:57.417Z,92.34
2023-10-26T15:00:25.103Z,100.00
2023-10-26T15:02:55.412Z,100.00
2023-10-26T15:05:23.700Z,94.74
2023-10-26T15:07:52.418Z,100.00
2023-10-26T15:10:26.535Z,100.00
2023-10-26T15:12:57.804Z,86.58
2023-10-26T15:15:26.686Z,89.30
2023-10-26T15:17:55.775Z,87.71
2023-10-26T15:20:24.425Z,82.12
2023-10-26T15:22:52.091Z,99.72
2023-10-26T15:25:20.446Z,100.00
2023-10-26T15:27:48.211Z,100.00
2023-10-26T15:30:16.469Z,100.00
2023-10-26T15:32:45.296Z,92.59
2023-10-26T15:35:14.433Z,94.29
2023-10-26T15:37:42.454Z,97.10
2023-10-26T15:40:13.119Z,91.06
2023-10-26T15:42:41.732Z,85.23
2023-10-26T15:45:10.061Z,84.95
2023-10-26T15:47:38.042Z,95.35
2023-10-26T15:50:07.549Z,93.32
2023-10-26T15:52:36.826Z,98.13
2023-10-26T15:55:05.518Z,100.00
2023-10-26T15:57:34.429Z,100.00
2023-10-26T16:00:07.523Z,91.95
2023-10-26T16:02:35.501Z,100.00
2023-10-26T16:05:03.421Z,100.00
2023-10-26T16:07:31.492Z,100.00
2023-10-26T16:10:01.540Z,100.00
2023-10-26T16:12:29.442Z,98.33
2023-10-26T16:14:57.496Z,95.29
2023-10-26T16:17:25.976Z,98.82
2023-10-26T16:19:54.518Z,99.80
2023-10-26T16:22:22.169Z,100.00
2023-10-26T16:24:52.394Z,100.00
2023-10-26T16:27:22.548Z,93.24
2023-10-26T16:29:51.342Z,96.93
2023-10-26T16:32:23.537Z,98.21
2023-10-26T16:34:51.168Z,91.97
2023-10-26T16:37:19.615Z,90.66
2023-10-26T16:39:47.336Z,86.80
2023-10-26T16:42:15.552Z,80.85
2023-10-26T16:44:44.635Z,94.80
2023-10-26T16:47:12.544Z,95.10
2023-10-26T16:49:40.158Z,85.49
2023-10-26T16:52:08.598Z,87.81
2023-10-26T16:54:36.373Z,83.57
2023-10-26T16:57:08.571Z,80.74
2023-10-26T16:59:36.352Z,82.76
2023-10-26T17:02:06.545Z,85.44
2023-10-26T17:04:34.216Z,100.00
2023-10-26T17:07:02.711Z,90.63
2023-10-26T17:09:31.057Z,94.77
2023-10-26T17:11:59.713Z,92.77
2023-10-26T17:14:27.501Z,93.43
2023-10-26T17:16:55.590Z,100.00
2023-10-26T17:19:26.160Z,95.53
2023-10-26T17:21:54.594Z,92.66
2023-10-26T17:24:22.288Z,100.00
2023-10-26T17:26:50.877Z,97.46
2023-10-26T17:29:19.600Z,100.00
2023-10-26T17:31:47.309Z,100.00
2023-10-26T17:34:15.583Z,96.97
2023-10-26T17:36:44.696Z,92.87
2023-10-26T17:39:12.651Z,93.34
2023-10-26T17:41:40.616Z,99.04
2023-10-26T17:44:08.533Z,90.70
2023-10-26T17:46:36.717Z,88.16
2023-10-26T17:49:04.616Z,90.97
2023-10-26T17:51:35.615Z,85.87
2023-10-26T17:56:34.283Z,85.12
2023-10-26T17:59:02.623Z,100.00
2023-10-26T18:01:30.661Z,100.00
2023-10-26T18:03:58.575Z,96.46
2023-10-26T18:06:28.642Z,89.35
2023-10-26T18:08:56.462Z,84.52
2023-10-26T18:11:25.670Z,87.49
2023-10-26T18:13:53.712Z,86.83
2023-10-26T18:16:21.771Z,81.57
2023-10-26T18:18:49.721Z,96.10
2023-10-26T18:21:17.727Z,86.21
2023-10-26T18:24:08.124Z,85.49
2023-10-26T18:26:37.687Z,84.68
2023-10-26T18:29:05.829Z,81.27
2023-10-26T18:31:33.801Z,83.02
2023-10-26T18:34:01.467Z,85.71
2023-10-26T18:36:29.748Z,82.05
2023-10-26T18:38:57.588Z,82.29
2023-10-26T18:41:26.733Z,87.02
2023-10-26T18:43:56.268Z,95.23
2023-10-26T18:46:25.731Z,94.80
2023-10-26T18:48:53.501Z,88.02
2023-10-26T18:51:24.696Z,83.54
2023-10-26T18:53:52.832Z,82.11
2023-10-26T18:56:22.715Z,77.03
2023-10-26T18:58:50.392Z,81.50
2023-10-26T19:01:19.860Z,82.03
2023-10-26T19:04:01.259Z,80.96
2023-10-26T19:09:43.859Z,81.48
2023-10-26T19:12:12.224Z,84.25
2023-10-26T19:14:39.918Z,79.34
2023-10-26T19:17:10.739Z,85.28
2023-10-26T19:19:38.657Z,83.21
2023-10-26T19:22:06.782Z,85.21
2023-10-26T19:24:34.759Z,83.03
2023-10-26T19:27:02.423Z,81.16
2023-10-26T19:29:30.998Z,87.39
2023-10-26T19:31:58.749Z,90.94
2023-10-26T19:34:28.758Z,91.02
2023-10-26T19:36:56.517Z,86.44
2023-10-26T19:39:24.785Z,80.95
2023-10-26T19:41:52.681Z,84.13
2023-10-26T19:44:20.764Z,87.55
2023-10-26T19:46:48.761Z,88.51
2023-10-26T19:49:16.812Z,89.88
2023-10-26T19:51:45.963Z,97.52
2023-10-26T19:54:14.806Z,86.83
2023-10-26T19:56:42.535Z,83.25
2023-10-26T19:59:10.792Z,86.71
2023-10-26T20:01:40.147Z,90.54
2023-10-26T20:04:08.805Z,91.67
2023-10-26T20:06:36.522Z,89.97
2023-10-26T20:09:07.787Z,93.44
2023-10-26T20:11:36.349Z,89.01
2023-10-26T20:14:04.213Z,85.70
2023-10-26T20:16:32.838Z,84.50
2023-10-26T20:19:01.601Z,88.14
2023-10-26T20:21:30.798Z,90.42
2023-10-26T20:23:58.522Z,86.27
2023-10-26T20:26:27.811Z,82.82
2023-10-26T20:28:56.205Z,86.33
2023-10-26T20:31:24.076Z,86.30
2023-10-26T20:33:52.875Z,90.68
2023-10-26T20:36:21.878Z,87.44
2023-10-26T20:38:49.622Z,84.18
2023-10-26T20:41:17.841Z,82.19
2023-10-26T20:43:48.797Z,85.96
2023-10-26T20:46:17.883Z,86.06
2023-10-26T20:48:45.662Z,84.51
2023-10-26T20:51:14.766Z,90.43
2023-10-26T20:53:42.870Z,84.17
2023-10-26T20:56:10.769Z,93.12
2023-10-26T20:58:38.709Z,86.24
2023-10-26T21:01:13.144Z,87.04
2023-10-26T21:03:41.822Z,79.88
2023-10-26T21:06:11.868Z,82.54
2023-10-26T21:08:39.745Z,83.25
2023-10-26T21:11:14.890Z,83.56
2023-10-26T21:13:42.658Z,82.13
2023-10-26T21:16:12.002Z,87.36
2023-10-26T21:18:39.768Z,80.73
2023-10-26T21:21:08.887Z,82.85
2023-10-26T21:23:37.265Z,81.54
2023-10-26T21:26:06.957Z,81.41
2023-10-26T21:28:35.147Z,80.51
2023-10-26T21:31:03.013Z,80.39
2023-10-26T21:33:32.921Z,87.70
2023-10-26T21:36:00.639Z,100.00
2023-10-26T21:38:28.940Z,100.00
2023-10-26T21:40:56.758Z,87.05
2023-10-26T21:43:25.952Z,82.55
2023-10-26T21:45:53.687Z,81.74
2023-10-26T21:48:23.107Z,87.62
2023-10-26T21:50:52.948Z,97.41
2023-10-26T21:53:20.613Z,85.81
2023-10-26T21:55:48.989Z,81.98
2023-10-26T21:58:16.736Z,78.36
2023-10-26T22:00:45.099Z,86.48
2023-10-26T22:03:12.860Z,91.56
2023-10-26T22:05:40.952Z,87.23
2023-10-26T22:08:10.198Z,89.23
2023-10-26T22:10:39.010Z,83.07
2023-10-26T22:13:07.170Z,84.41
2023-10-26T22:15:35.047Z,82.54
2023-10-26T22:18:02.837Z,81.19
2023-10-26T22:20:30.630Z,81.77
2023-10-26T22:22:58.974Z,85.21
2023-10-26T22:25:28.186Z,85.24
2023-10-26T22:27:56.028Z,87.33
2023-10-26T22:30:23.818Z,90.42
2023-10-26T22:32:52.016Z,89.83
2023-10-26T22:35:19.790Z,86.63
2023-10-26T22:37:48.010Z,82.42
2023-10-26T22:40:15.868Z,92.23
2023-10-26T22:42:45.194Z,92.53
2023-10-26T22:48:11.044Z,90.43
2023-10-26T22:50:38.748Z,83.20
2023-10-26T22:53:07.186Z,85.00
2023-10-26T22:55:36.057Z,84.49
2023-10-26T22:58:08.201Z,83.99
2023-10-26T23:00:38.043Z,83.45
2023-10-26T23:03:06.223Z,84.04
2023-10-26T23:05:35.004Z,93.94
2023-10-26T23:08:04.905Z,100.00
2023-10-26T23:10:32.844Z,100.00
2023-10-26T23:13:01.343Z,100.00
2023-10-26T23:15:30.475Z,88.16
2023-10-26T23:17:59.172Z,88.93
2023-10-26T23:20:27.056Z,82.82
2023-10-26T23:22:55.050Z,80.32
2023-10-26T23:25:24.425Z,84.04
2023-10-26T23:27:52.269Z,93.00
2023-10-26T23:30:21.096Z,99.31
2023-10-26T23:32:51.859Z,93.47
2023-10-26T23:35:19.727Z,99.46
2023-10-26T23:37:48.075Z,100.00
2023-10-26T23:40:15.915Z,100.00
2023-10-26T23:42:44.226Z,100.00
2023-10-26T23:45:12.134Z,94.72
2023-10-26T23:47:40.114Z,100.00
2023-10-26T23:50:10.328Z,100.00
2023-10-26T23:52:40.149Z,100.00
2023-10-26T23:55:08.456Z,100.00
2023-10-26T23:57:37.090Z,100.00
